sensor_id;sensor_type;location;lat;lon;timestamp;P1;durP1;ratioP1;P2;durP2;ratioP2
21192;SDS011;10754;51.106;7.164;2023-04-23T00:00:38;10.65;;;9.57;;
21192;SDS011;10754;51.106;7.164;2023-04-23T00:03:07;10.50;;;9.60;;
21192;SDS011;10754;51.106;7.164;2023-04-23T00:05:34;11.27;;;10.38;;
21192;SDS011;10754;51.106;7.164;2023-04-23T00:08:01;10.68;;;9.65;;
21192;SDS011;10754;51.106;7.164;2023-04-23T00:10:27;10.80;;;9.90;;
21192;SDS011;10754;51.106;7.164;2023-04-23T00:12:53;10.65;;;9.75;;
21192;SDS011;10754;51.106;7.164;2023-04-23T00:15:19;10.75;;;9.80;;
21192;SDS011;10754;51.106;7.164;2023-04-23T00:17:46;10.75;;;9.75;;
21192;SDS011;10754;51.106;7.164;2023-04-23T00:20:12;11.43;;;10.40;;
21192;SDS011;10754;51.106;7.164;2023-04-23T00:22:38;10.90;;;9.80;;
21192;SDS011;10754;51.106;7.164;2023-04-23T00:25:04;10.73;;;9.73;;
21192;SDS011;10754;51.106;7.164;2023-04-23T00:27:29;9.80;;;9.00;;
21192;SDS011;10754;51.106;7.164;2023-04-23T00:29:55;11.32;;;10.32;;
21192;SDS011;10754;51.106;7.164;2023-04-23T00:32:20;10.88;;;9.95;;
21192;SDS011;10754;51.106;7.164;2023-04-23T00:34:46;11.43;;;10.43;;
21192;SDS011;10754;51.106;7.164;2023-04-23T00:37:15;11.68;;;10.60;;
21192;SDS011;10754;51.106;7.164;2023-04-23T00:39:41;11.07;;;10.02;;
21192;SDS011;10754;51.106;7.164;2023-04-23T00:42:07;10.73;;;9.93;;
21192;SDS011;10754;51.106;7.164;2023-04-23T00:44:39;11.20;;;10.30;;
21192;SDS011;10754;51.106;7.164;2023-04-23T00:47:08;11.68;;;10.73;;
21192;SDS011;10754;51.106;7.164;2023-04-23T00:49:34;12.07;;;10.98;;
21192;SDS011;10754;51.106;7.164;2023-04-23T00:52:01;11.35;;;10.35;;
21192;SDS011;10754;51.106;7.164;2023-04-23T00:54:27;12.93;;;11.80;;
21192;SDS011;10754;51.106;7.164;2023-04-23T00:56:53;13.40;;;12.20;;
21192;SDS011;10754;51.106;7.164;2023-04-23T00:59:19;10.73;;;9.82;;
21192;SDS011;10754;51.106;7.164;2023-04-23T01:01:45;22.30;;;10.27;;
21192;SDS011;10754;51.106;7.164;2023-04-23T01:04:12;11.55;;;10.55;;
21192;SDS011;10754;51.106;7.164;2023-04-23T01:06:40;11.15;;;10.15;;
21192;SDS011;10754;51.106;7.164;2023-04-23T01:09:06;12.07;;;10.82;;
21192;SDS011;10754;51.106;7.164;2023-04-23T01:11:33;10.52;;;9.52;;
21192;SDS011;10754;51.106;7.164;2023-04-23T01:14:02;10.00;;;9.15;;
21192;SDS011;10754;51.106;7.164;2023-04-23T01:16:28;10.82;;;9.80;;
21192;SDS011;10754;51.106;7.164;2023-04-23T01:18:54;10.43;;;9.43;;
21192;SDS011;10754;51.106;7.164;2023-04-23T01:21:20;11.75;;;10.48;;
21192;SDS011;10754;51.106;7.164;2023-04-23T01:23:47;11.55;;;10.23;;
21192;SDS011;10754;51.106;7.164;2023-04-23T01:26:13;10.52;;;9.65;;
21192;SDS011;10754;51.106;7.164;2023-04-23T01:28:39;10.25;;;9.35;;
21192;SDS011;10754;51.106;7.164;2023-04-23T01:31:06;10.30;;;9.40;;
21192;SDS011;10754;51.106;7.164;2023-04-23T01:33:32;12.27;;;10.95;;
21192;SDS011;10754;51.106;7.164;2023-04-23T01:35:58;13.13;;;11.80;;
21192;SDS011;10754;51.106;7.164;2023-04-23T01:38:24;12.80;;;11.60;;
21192;SDS011;10754;51.106;7.164;2023-04-23T01:40:54;12.75;;;10.57;;
21192;SDS011;10754;51.106;7.164;2023-04-23T01:43:20;12.35;;;10.95;;
21192;SDS011;10754;51.106;7.164;2023-04-23T01:45:46;11.35;;;10.18;;
21192;SDS011;10754;51.106;7.164;2023-04-23T01:48:12;10.32;;;9.27;;
21192;SDS011;10754;51.106;7.164;2023-04-23T01:50:38;11.00;;;10.10;;
21192;SDS011;10754;51.106;7.164;2023-04-23T01:53:04;10.63;;;9.63;;
21192;SDS011;10754;51.106;7.164;2023-04-23T01:55:30;11.18;;;9.93;;
21192;SDS011;10754;51.106;7.164;2023-04-23T01:57:58;10.80;;;9.90;;
21192;SDS011;10754;51.106;7.164;2023-04-23T02:00:23;10.38;;;9.38;;
21192;SDS011;10754;51.106;7.164;2023-04-23T02:02:49;10.27;;;9.27;;
21192;SDS011;10754;51.106;7.164;2023-04-23T02:05:18;11.27;;;10.25;;
21192;SDS011;10754;51.106;7.164;2023-04-23T02:07:45;10.43;;;9.52;;
21192;SDS011;10754;51.106;7.164;2023-04-23T02:10:12;11.32;;;10.18;;
21192;SDS011;10754;51.106;7.164;2023-04-23T02:12:38;12.18;;;10.98;;
21192;SDS011;10754;51.106;7.164;2023-04-23T02:15:04;13.32;;;10.93;;
21192;SDS011;10754;51.106;7.164;2023-04-23T02:17:31;12.10;;;11.07;;
21192;SDS011;10754;51.106;7.164;2023-04-23T02:19:57;12.88;;;11.60;;
21192;SDS011;10754;51.106;7.164;2023-04-23T02:22:22;10.95;;;9.90;;
21192;SDS011;10754;51.106;7.164;2023-04-23T02:24:49;11.13;;;10.18;;
21192;SDS011;10754;51.106;7.164;2023-04-23T02:27:15;11.73;;;10.63;;
21192;SDS011;10754;51.106;7.164;2023-04-23T02:29:41;11.13;;;10.02;;
21192;SDS011;10754;51.106;7.164;2023-04-23T02:32:07;11.55;;;10.45;;
21192;SDS011;10754;51.106;7.164;2023-04-23T02:34:32;10.57;;;9.60;;
21192;SDS011;10754;51.106;7.164;2023-04-23T02:36:58;10.43;;;9.52;;
21192;SDS011;10754;51.106;7.164;2023-04-23T02:39:23;11.07;;;10.05;;
21192;SDS011;10754;51.106;7.164;2023-04-23T02:41:49;11.52;;;10.30;;
21192;SDS011;10754;51.106;7.164;2023-04-23T02:44:15;11.15;;;10.00;;
21192;SDS011;10754;51.106;7.164;2023-04-23T02:46:40;10.75;;;9.75;;
21192;SDS011;10754;51.106;7.164;2023-04-23T02:49:06;11.73;;;10.73;;
21192;SDS011;10754;51.106;7.164;2023-04-23T02:51:31;11.23;;;10.20;;
21192;SDS011;10754;51.106;7.164;2023-04-23T02:53:57;11.40;;;10.40;;
21192;SDS011;10754;51.106;7.164;2023-04-23T02:56:22;11.20;;;10.25;;
21192;SDS011;10754;51.106;7.164;2023-04-23T02:58:48;11.15;;;10.05;;
21192;SDS011;10754;51.106;7.164;2023-04-23T03:01:14;12.32;;;11.05;;
21192;SDS011;10754;51.106;7.164;2023-04-23T03:03:40;12.50;;;11.30;;
21192;SDS011;10754;51.106;7.164;2023-04-23T03:06:06;13.18;;;11.77;;
21192;SDS011;10754;51.106;7.164;2023-04-23T03:08:32;13.43;;;12.23;;
21192;SDS011;10754;51.106;7.164;2023-04-23T03:10:58;12.93;;;11.77;;
21192;SDS011;10754;51.106;7.164;2023-04-23T03:13:24;11.52;;;10.48;;
21192;SDS011;10754;51.106;7.164;2023-04-23T03:15:50;11.60;;;10.27;;
21192;SDS011;10754;51.106;7.164;2023-04-23T03:18:16;12.48;;;11.38;;
21192;SDS011;10754;51.106;7.164;2023-04-23T03:20:42;10.63;;;9.73;;
21192;SDS011;10754;51.106;7.164;2023-04-23T03:23:08;12.10;;;10.90;;
21192;SDS011;10754;51.106;7.164;2023-04-23T03:25:33;12.68;;;11.55;;
21192;SDS011;10754;51.106;7.164;2023-04-23T03:27:59;13.00;;;11.90;;
21192;SDS011;10754;51.106;7.164;2023-04-23T03:30:25;13.07;;;11.82;;
21192;SDS011;10754;51.106;7.164;2023-04-23T03:32:51;13.10;;;11.98;;
21192;SDS011;10754;51.106;7.164;2023-04-23T03:35:19;12.90;;;11.57;;
21192;SDS011;10754;51.106;7.164;2023-04-23T03:37:44;12.93;;;11.63;;
21192;SDS011;10754;51.106;7.164;2023-04-23T03:40:10;12.43;;;11.35;;
21192;SDS011;10754;51.106;7.164;2023-04-23T03:42:36;12.60;;;11.40;;
21192;SDS011;10754;51.106;7.164;2023-04-23T03:45:01;13.48;;;12.38;;
21192;SDS011;10754;51.106;7.164;2023-04-23T03:47:27;13.43;;;12.23;;
21192;SDS011;10754;51.106;7.164;2023-04-23T03:49:53;12.88;;;11.68;;
21192;SDS011;10754;51.106;7.164;2023-04-23T03:52:19;13.27;;;12.18;;
21192;SDS011;10754;51.106;7.164;2023-04-23T03:54:44;12.70;;;11.63;;
21192;SDS011;10754;51.106;7.164;2023-04-23T03:57:10;12.90;;;11.77;;
21192;SDS011;10754;51.106;7.164;2023-04-23T03:59:38;13.05;;;11.75;;
21192;SDS011;10754;51.106;7.164;2023-04-23T04:02:04;12.52;;;11.52;;
21192;SDS011;10754;51.106;7.164;2023-04-23T04:04:30;12.50;;;11.50;;
21192;SDS011;10754;51.106;7.164;2023-04-23T04:06:56;12.07;;;11.00;;
21192;SDS011;10754;51.106;7.164;2023-04-23T04:09:24;12.85;;;11.65;;
21192;SDS011;10754;51.106;7.164;2023-04-23T04:11:50;11.75;;;10.77;;
21192;SDS011;10754;51.106;7.164;2023-04-23T04:14:17;11.70;;;10.50;;
21192;SDS011;10754;51.106;7.164;2023-04-23T04:16:43;11.23;;;10.32;;
21192;SDS011;10754;51.106;7.164;2023-04-23T04:19:09;11.48;;;10.48;;
21192;SDS011;10754;51.106;7.164;2023-04-23T04:21:35;11.57;;;10.63;;
21192;SDS011;10754;51.106;7.164;2023-04-23T04:24:00;11.13;;;10.13;;
21192;SDS011;10754;51.106;7.164;2023-04-23T04:26:27;11.02;;;10.13;;
21192;SDS011;10754;51.106;7.164;2023-04-23T04:28:52;11.48;;;10.48;;
21192;SDS011;10754;51.106;7.164;2023-04-23T04:31:18;10.73;;;9.85;;
21192;SDS011;10754;51.106;7.164;2023-04-23T04:33:47;10.80;;;9.80;;
21192;SDS011;10754;51.106;7.164;2023-04-23T04:36:12;10.98;;;10.07;;
21192;SDS011;10754;51.106;7.164;2023-04-23T04:38:38;11.52;;;10.52;;
21192;SDS011;10754;51.106;7.164;2023-04-23T04:41:04;10.68;;;9.65;;
21192;SDS011;10754;51.106;7.164;2023-04-23T04:43:31;11.40;;;10.40;;
21192;SDS011;10754;51.106;7.164;2023-04-23T04:45:58;10.38;;;9.57;;
21192;SDS011;10754;51.106;7.164;2023-04-23T04:48:24;10.63;;;9.65;;
21192;SDS011;10754;51.106;7.164;2023-04-23T04:50:49;10.82;;;9.82;;
21192;SDS011;10754;51.106;7.164;2023-04-23T04:53:16;10.50;;;9.65;;
21192;SDS011;10754;51.106;7.164;2023-04-23T04:55:41;10.60;;;9.70;;
21192;SDS011;10754;51.106;7.164;2023-04-23T04:58:07;10.73;;;9.82;;
21192;SDS011;10754;51.106;7.164;2023-04-23T05:00:32;10.20;;;9.32;;
21192;SDS011;10754;51.106;7.164;2023-04-23T05:02:58;10.35;;;9.50;;
21192;SDS011;10754;51.106;7.164;2023-04-23T05:05:24;11.27;;;10.23;;
21192;SDS011;10754;51.106;7.164;2023-04-23T05:07:51;10.45;;;9.55;;
21192;SDS011;10754;51.106;7.164;2023-04-23T05:10:23;9.82;;;8.98;;
21192;SDS011;10754;51.106;7.164;2023-04-23T05:12:49;9.95;;;9.05;;
21192;SDS011;10754;51.106;7.164;2023-04-23T05:15:15;9.90;;;9.10;;
21192;SDS011;10754;51.106;7.164;2023-04-23T05:17:41;9.95;;;9.05;;
21192;SDS011;10754;51.106;7.164;2023-04-23T05:20:08;10.27;;;9.32;;
21192;SDS011;10754;51.106;7.164;2023-04-23T05:22:36;10.10;;;9.20;;
21192;SDS011;10754;51.106;7.164;2023-04-23T05:25:03;12.77;;;8.90;;
21192;SDS011;10754;51.106;7.164;2023-04-23T05:27:29;9.30;;;8.50;;
21192;SDS011;10754;51.106;7.164;2023-04-23T05:29:55;9.82;;;8.95;;
21192;SDS011;10754;51.106;7.164;2023-04-23T05:32:20;8.75;;;7.95;;
21192;SDS011;10754;51.106;7.164;2023-04-23T05:34:46;9.48;;;8.63;;
21192;SDS011;10754;51.106;7.164;2023-04-23T05:37:11;8.70;;;7.90;;
21192;SDS011;10754;51.106;7.164;2023-04-23T05:39:36;8.85;;;8.13;;
21192;SDS011;10754;51.106;7.164;2023-04-23T05:42:02;10.32;;;8.35;;
21192;SDS011;10754;51.106;7.164;2023-04-23T05:44:28;8.68;;;7.97;;
21192;SDS011;10754;51.106;7.164;2023-04-23T05:46:53;9.35;;;8.55;;
21192;SDS011;10754;51.106;7.164;2023-04-23T05:49:19;8.25;;;7.45;;
21192;SDS011;10754;51.106;7.164;2023-04-23T05:51:45;8.20;;;7.50;;
21192;SDS011;10754;51.106;7.164;2023-04-23T05:54:10;7.57;;;6.88;;
21192;SDS011;10754;51.106;7.164;2023-04-23T05:56:36;7.82;;;7.03;;
21192;SDS011;10754;51.106;7.164;2023-04-23T05:59:01;7.25;;;6.65;;
21192;SDS011;10754;51.106;7.164;2023-04-23T06:01:27;7.70;;;7.00;;
21192;SDS011;10754;51.106;7.164;2023-04-23T06:03:52;7.57;;;6.93;;
21192;SDS011;10754;51.106;7.164;2023-04-23T06:06:18;6.97;;;6.47;;
21192;SDS011;10754;51.106;7.164;2023-04-23T06:08:44;7.13;;;6.53;;
21192;SDS011;10754;51.106;7.164;2023-04-23T06:11:09;7.30;;;6.70;;
21192;SDS011;10754;51.106;7.164;2023-04-23T06:13:35;7.55;;;6.85;;
21192;SDS011;10754;51.106;7.164;2023-04-23T06:16:05;8.15;;;7.30;;
21192;SDS011;10754;51.106;7.164;2023-04-23T06:18:31;7.00;;;6.30;;
21192;SDS011;10754;51.106;7.164;2023-04-23T06:20:57;7.72;;;6.55;;
21192;SDS011;10754;51.106;7.164;2023-04-23T06:23:25;6.70;;;6.20;;
21192;SDS011;10754;51.106;7.164;2023-04-23T06:25:51;7.00;;;6.40;;
21192;SDS011;10754;51.106;7.164;2023-04-23T06:28:16;6.82;;;6.22;;
21192;SDS011;10754;51.106;7.164;2023-04-23T06:30:42;6.38;;;5.88;;
21192;SDS011;10754;51.106;7.164;2023-04-23T06:33:07;6.38;;;5.88;;
21192;SDS011;10754;51.106;7.164;2023-04-23T06:35:33;5.82;;;5.22;;
21192;SDS011;10754;51.106;7.164;2023-04-23T06:37:59;6.20;;;5.63;;
21192;SDS011;10754;51.106;7.164;2023-04-23T06:40:24;5.97;;;5.50;;
21192;SDS011;10754;51.106;7.164;2023-04-23T06:42:50;6.38;;;5.88;;
21192;SDS011;10754;51.106;7.164;2023-04-23T06:45:15;5.93;;;5.43;;
21192;SDS011;10754;51.106;7.164;2023-04-23T06:47:41;5.55;;;5.15;;
21192;SDS011;10754;51.106;7.164;2023-04-23T06:50:06;5.82;;;5.32;;
21192;SDS011;10754;51.106;7.164;2023-04-23T06:52:32;5.80;;;5.30;;
21192;SDS011;10754;51.106;7.164;2023-04-23T06:54:58;5.78;;;5.25;;
21192;SDS011;10754;51.106;7.164;2023-04-23T06:57:23;5.25;;;4.78;;
21192;SDS011;10754;51.106;7.164;2023-04-23T06:59:49;5.20;;;4.70;;
21192;SDS011;10754;51.106;7.164;2023-04-23T07:02:15;5.25;;;4.75;;
21192;SDS011;10754;51.106;7.164;2023-04-23T07:04:40;5.40;;;4.90;;
21192;SDS011;10754;51.106;7.164;2023-04-23T07:07:06;5.25;;;4.68;;
21192;SDS011;10754;51.106;7.164;2023-04-23T07:09:31;4.85;;;4.35;;
21192;SDS011;10754;51.106;7.164;2023-04-23T07:11:57;5.03;;;4.63;;
21192;SDS011;10754;51.106;7.164;2023-04-23T07:14:22;5.00;;;4.60;;
21192;SDS011;10754;51.106;7.164;2023-04-23T07:16:48;5.03;;;4.63;;
21192;SDS011;10754;51.106;7.164;2023-04-23T07:19:14;5.05;;;4.65;;
21192;SDS011;10754;51.106;7.164;2023-04-23T07:21:40;4.75;;;4.35;;
21192;SDS011;10754;51.106;7.164;2023-04-23T07:24:06;4.68;;;4.28;;
21192;SDS011;10754;51.106;7.164;2023-04-23T07:26:32;4.82;;;4.38;;
21192;SDS011;10754;51.106;7.164;2023-04-23T07:28:58;5.03;;;4.63;;
21192;SDS011;10754;51.106;7.164;2023-04-23T07:31:25;4.68;;;4.30;;
21192;SDS011;10754;51.106;7.164;2023-04-23T07:33:50;7.47;;;4.63;;
21192;SDS011;10754;51.106;7.164;2023-04-23T07:36:16;5.70;;;5.03;;
21192;SDS011;10754;51.106;7.164;2023-04-23T07:38:42;4.70;;;4.30;;
21192;SDS011;10754;51.106;7.164;2023-04-23T07:41:07;5.03;;;4.38;;
21192;SDS011;10754;51.106;7.164;2023-04-23T07:43:33;4.45;;;4.15;;
21192;SDS011;10754;51.106;7.164;2023-04-23T07:45:58;4.60;;;4.20;;
21192;SDS011;10754;51.106;7.164;2023-04-23T07:48:24;3.67;;;3.38;;
21192;SDS011;10754;51.106;7.164;2023-04-23T07:50:49;4.13;;;3.78;;
21192;SDS011;10754;51.106;7.164;2023-04-23T07:53:15;5.75;;;4.18;;
21192;SDS011;10754;51.106;7.164;2023-04-23T07:55:40;4.10;;;3.58;;
21192;SDS011;10754;51.106;7.164;2023-04-23T07:58:06;4.20;;;3.80;;
21192;SDS011;10754;51.106;7.164;2023-04-23T08:00:31;4.35;;;3.95;;
21192;SDS011;10754;51.106;7.164;2023-04-23T08:02:57;3.55;;;3.25;;
21192;SDS011;10754;51.106;7.164;2023-04-23T08:05:23;3.78;;;3.50;;
21192;SDS011;10754;51.106;7.164;2023-04-23T08:07:50;3.47;;;3.17;;
21192;SDS011;10754;51.106;7.164;2023-04-23T08:10:15;4.03;;;3.13;;
21192;SDS011;10754;51.106;7.164;2023-04-23T08:12:41;3.55;;;3.25;;
21192;SDS011;10754;51.106;7.164;2023-04-23T08:15:07;4.07;;;3.67;;
21192;SDS011;10754;51.106;7.164;2023-04-23T08:17:32;4.25;;;3.85;;
21192;SDS011;10754;51.106;7.164;2023-04-23T08:19:58;3.22;;;2.92;;
21192;SDS011;10754;51.106;7.164;2023-04-23T08:22:23;3.67;;;3.22;;
21192;SDS011;10754;51.106;7.164;2023-04-23T08:24:49;3.28;;;2.70;;
21192;SDS011;10754;51.106;7.164;2023-04-23T08:27:14;3.50;;;3.20;;
21192;SDS011;10754;51.106;7.164;2023-04-23T08:29:40;3.28;;;3.08;;
21192;SDS011;10754;51.106;7.164;2023-04-23T08:32:05;3.10;;;2.80;;
21192;SDS011;10754;51.106;7.164;2023-04-23T08:34:31;2.97;;;2.53;;
21192;SDS011;10754;51.106;7.164;2023-04-23T08:36:57;3.20;;;2.90;;
21192;SDS011;10754;51.106;7.164;2023-04-23T08:39:22;2.70;;;2.50;;
21192;SDS011;10754;51.106;7.164;2023-04-23T08:41:48;3.35;;;3.05;;
21192;SDS011;10754;51.106;7.164;2023-04-23T08:44:24;2.95;;;2.33;;
21192;SDS011;10754;51.106;7.164;2023-04-23T08:46:51;3.33;;;2.92;;
21192;SDS011;10754;51.106;7.164;2023-04-23T08:49:18;2.97;;;2.65;;
21192;SDS011;10754;51.106;7.164;2023-04-23T08:51:48;2.85;;;2.38;;
21192;SDS011;10754;51.106;7.164;2023-04-23T08:54:18;2.20;;;2.00;;
21192;SDS011;10754;51.106;7.164;2023-04-23T08:56:55;4.50;;;2.70;;
21192;SDS011;10754;51.106;7.164;2023-04-23T08:59:24;3.65;;;2.45;;
21192;SDS011;10754;51.106;7.164;2023-04-23T09:01:50;3.15;;;2.33;;
21192;SDS011;10754;51.106;7.164;2023-04-23T09:04:17;3.17;;;2.47;;
21192;SDS011;10754;51.106;7.164;2023-04-23T09:06:44;4.95;;;2.25;;
21192;SDS011;10754;51.106;7.164;2023-04-23T09:09:10;2.10;;;1.90;;
21192;SDS011;10754;51.106;7.164;2023-04-23T09:11:39;2.30;;;2.10;;
21192;SDS011;10754;51.106;7.164;2023-04-23T09:14:05;2.25;;;2.05;;
21192;SDS011;10754;51.106;7.164;2023-04-23T09:16:31;2.90;;;2.13;;
21192;SDS011;10754;51.106;7.164;2023-04-23T09:18:57;1.80;;;1.70;;
21192;SDS011;10754;51.106;7.164;2023-04-23T09:21:23;2.22;;;1.70;;
21192;SDS011;10754;51.106;7.164;2023-04-23T09:23:51;3.47;;;2.08;;
21192;SDS011;10754;51.106;7.164;2023-04-23T09:26:20;2.20;;;1.90;;
21192;SDS011;10754;51.106;7.164;2023-04-23T09:28:49;1.88;;;1.70;;
21192;SDS011;10754;51.106;7.164;2023-04-23T09:31:21;2.92;;;1.90;;
21192;SDS011;10754;51.106;7.164;2023-04-23T09:33:51;2.72;;;1.83;;
21192;SDS011;10754;51.106;7.164;2023-04-23T09:36:21;1.83;;;1.70;;
21192;SDS011;10754;51.106;7.164;2023-04-23T09:38:47;2.47;;;1.90;;
21192;SDS011;10754;51.106;7.164;2023-04-23T09:41:23;5.35;;;1.98;;
21192;SDS011;10754;51.106;7.164;2023-04-23T09:43:53;1.45;;;1.35;;
21192;SDS011;10754;51.106;7.164;2023-04-23T09:46:32;2.30;;;1.77;;
21192;SDS011;10754;51.106;7.164;2023-04-23T09:49:02;1.98;;;1.48;;
21192;SDS011;10754;51.106;7.164;2023-04-23T09:51:30;1.65;;;1.50;;
21192;SDS011;10754;51.106;7.164;2023-04-23T09:53:56;4.45;;;1.23;;
21192;SDS011;10754;51.106;7.164;2023-04-23T09:56:23;2.50;;;1.65;;
21192;SDS011;10754;51.106;7.164;2023-04-23T09:58:48;1.92;;;1.27;;
21192;SDS011;10754;51.106;7.164;2023-04-23T10:01:14;2.60;;;1.90;;
21192;SDS011;10754;51.106;7.164;2023-04-23T10:03:42;3.13;;;1.30;;
21192;SDS011;10754;51.106;7.164;2023-04-23T10:06:14;3.95;;;1.20;;
21192;SDS011;10754;51.106;7.164;2023-04-23T10:08:40;3.92;;;1.65;;
21192;SDS011;10754;51.106;7.164;2023-04-23T10:11:07;1.30;;;1.10;;
21192;SDS011;10754;51.106;7.164;2023-04-23T10:13:33;2.53;;;1.50;;
21192;SDS011;10754;51.106;7.164;2023-04-23T10:16:00;1.63;;;1.10;;
21192;SDS011;10754;51.106;7.164;2023-04-23T10:18:27;1.77;;;1.30;;
21192;SDS011;10754;51.106;7.164;2023-04-23T10:20:55;3.97;;;1.55;;
21192;SDS011;10754;51.106;7.164;2023-04-23T10:23:21;1.20;;;0.88;;
21192;SDS011;10754;51.106;7.164;2023-04-23T10:25:48;2.70;;;1.42;;
21192;SDS011;10754;51.106;7.164;2023-04-23T10:28:17;1.20;;;1.00;;
21192;SDS011;10754;51.106;7.164;2023-04-23T10:30:50;1.45;;;1.00;;
21192;SDS011;10754;51.106;7.164;2023-04-23T10:33:17;1.92;;;0.93;;
21192;SDS011;10754;51.106;7.164;2023-04-23T10:35:45;2.80;;;1.35;;
21192;SDS011;10754;51.106;7.164;2023-04-23T10:38:12;1.60;;;1.05;;
21192;SDS011;10754;51.106;7.164;2023-04-23T10:40:38;1.35;;;0.80;;
21192;SDS011;10754;51.106;7.164;2023-04-23T10:43:07;1.13;;;0.77;;
21192;SDS011;10754;51.106;7.164;2023-04-23T10:45:33;1.88;;;0.95;;
21192;SDS011;10754;51.106;7.164;2023-04-23T10:47:58;1.88;;;0.85;;
21192;SDS011;10754;51.106;7.164;2023-04-23T10:50:25;2.67;;;1.00;;
21192;SDS011;10754;51.106;7.164;2023-04-23T10:52:52;3.55;;;1.00;;
21192;SDS011;10754;51.106;7.164;2023-04-23T10:55:20;1.85;;;1.00;;
21192;SDS011;10754;51.106;7.164;2023-04-23T10:57:57;1.15;;;0.65;;
21192;SDS011;10754;51.106;7.164;2023-04-23T11:00:27;1.52;;;0.47;;
21192;SDS011;10754;51.106;7.164;2023-04-23T11:02:53;1.10;;;0.60;;
21192;SDS011;10754;51.106;7.164;2023-04-23T11:05:20;1.60;;;0.68;;
21192;SDS011;10754;51.106;7.164;2023-04-23T11:08:03;1.50;;;0.70;;
21192;SDS011;10754;51.106;7.164;2023-04-23T11:10:30;1.42;;;0.70;;
21192;SDS011;10754;51.106;7.164;2023-04-23T11:12:57;1.98;;;0.73;;
21192;SDS011;10754;51.106;7.164;2023-04-23T11:15:42;1.35;;;0.60;;
21192;SDS011;10754;51.106;7.164;2023-04-23T11:18:08;1.13;;;0.70;;
21192;SDS011;10754;51.106;7.164;2023-04-23T11:20:35;2.38;;;0.93;;
21192;SDS011;10754;51.106;7.164;2023-04-23T11:23:01;1.15;;;0.73;;
21192;SDS011;10754;51.106;7.164;2023-04-23T11:25:30;2.03;;;0.55;;
21192;SDS011;10754;51.106;7.164;2023-04-23T11:27:56;1.67;;;0.60;;
21192;SDS011;10754;51.106;7.164;2023-04-23T11:30:23;0.85;;;0.57;;
21192;SDS011;10754;51.106;7.164;2023-04-23T11:32:51;3.25;;;0.77;;
21192;SDS011;10754;51.106;7.164;2023-04-23T11:35:21;1.85;;;0.90;;
21192;SDS011;10754;51.106;7.164;2023-04-23T11:37:48;1.13;;;0.73;;
21192;SDS011;10754;51.106;7.164;2023-04-23T11:40:17;1.90;;;0.82;;
21192;SDS011;10754;51.106;7.164;2023-04-23T11:42:47;2.05;;;0.73;;
21192;SDS011;10754;51.106;7.164;2023-04-23T11:45:18;0.95;;;0.60;;
21192;SDS011;10754;51.106;7.164;2023-04-23T11:47:44;1.33;;;0.60;;
21192;SDS011;10754;51.106;7.164;2023-04-23T11:53:06;3.17;;;0.70;;
21192;SDS011;10754;51.106;7.164;2023-04-23T11:55:33;1.60;;;0.63;;
21192;SDS011;10754;51.106;7.164;2023-04-23T11:57:58;2.15;;;0.68;;
21192;SDS011;10754;51.106;7.164;2023-04-23T12:00:24;1.02;;;0.60;;
21192;SDS011;10754;51.106;7.164;2023-04-23T12:05:27;1.80;;;0.70;;
21192;SDS011;10754;51.106;7.164;2023-04-23T12:08:10;2.28;;;0.70;;
21192;SDS011;10754;51.106;7.164;2023-04-23T12:10:43;1.88;;;0.75;;
21192;SDS011;10754;51.106;7.164;2023-04-23T12:13:14;1.15;;;0.65;;
21192;SDS011;10754;51.106;7.164;2023-04-23T12:15:47;1.85;;;1.00;;
21192;SDS011;10754;51.106;7.164;2023-04-23T12:18:15;2.20;;;0.80;;
21192;SDS011;10754;51.106;7.164;2023-04-23T12:20:41;1.35;;;0.47;;
21192;SDS011;10754;51.106;7.164;2023-04-23T12:23:07;0.88;;;0.52;;
21192;SDS011;10754;51.106;7.164;2023-04-23T12:25:33;1.65;;;0.50;;
21192;SDS011;10754;51.106;7.164;2023-04-23T12:27:59;1.98;;;0.80;;
21192;SDS011;10754;51.106;7.164;2023-04-23T12:30:28;1.08;;;0.45;;
21192;SDS011;10754;51.106;7.164;2023-04-23T12:33:01;2.30;;;0.70;;
21192;SDS011;10754;51.106;7.164;2023-04-23T12:38:04;1.30;;;0.60;;
21192;SDS011;10754;51.106;7.164;2023-04-23T12:40:30;3.72;;;0.80;;
21192;SDS011;10754;51.106;7.164;2023-04-23T12:42:55;1.77;;;0.65;;
21192;SDS011;10754;51.106;7.164;2023-04-23T12:45:21;6.80;;;1.02;;
21192;SDS011;10754;51.106;7.164;2023-04-23T12:47:47;1.15;;;0.57;;
21192;SDS011;10754;51.106;7.164;2023-04-23T12:50:12;2.03;;;0.70;;
21192;SDS011;10754;51.106;7.164;2023-04-23T12:52:38;1.50;;;0.52;;
21192;SDS011;10754;51.106;7.164;2023-04-23T12:55:03;0.82;;;0.55;;
21192;SDS011;10754;51.106;7.164;2023-04-23T12:57:30;1.55;;;0.63;;
21192;SDS011;10754;51.106;7.164;2023-04-23T12:59:55;0.68;;;0.45;;
21192;SDS011;10754;51.106;7.164;2023-04-23T13:02:21;1.25;;;0.70;;
21192;SDS011;10754;51.106;7.164;2023-04-23T13:04:47;1.25;;;0.50;;
21192;SDS011;10754;51.106;7.164;2023-04-23T13:07:13;1.75;;;0.55;;
21192;SDS011;10754;51.106;7.164;2023-04-23T13:09:39;1.98;;;0.70;;
21192;SDS011;10754;51.106;7.164;2023-04-23T13:12:04;1.88;;;0.80;;
21192;SDS011;10754;51.106;7.164;2023-04-23T13:14:30;2.15;;;0.90;;
21192;SDS011;10754;51.106;7.164;2023-04-23T13:16:56;1.20;;;0.60;;
21192;SDS011;10754;51.106;7.164;2023-04-23T13:19:22;0.98;;;0.63;;
21192;SDS011;10754;51.106;7.164;2023-04-23T13:21:48;1.15;;;0.50;;
21192;SDS011;10754;51.106;7.164;2023-04-23T13:24:14;2.85;;;0.75;;
21192;SDS011;10754;51.106;7.164;2023-04-23T13:26:39;0.98;;;0.63;;
21192;SDS011;10754;51.106;7.164;2023-04-23T13:29:05;0.85;;;0.40;;
21192;SDS011;10754;51.106;7.164;2023-04-23T13:31:30;1.42;;;0.57;;
21192;SDS011;10754;51.106;7.164;2023-04-23T13:33:57;1.15;;;0.52;;
21192;SDS011;10754;51.106;7.164;2023-04-23T13:36:23;3.08;;;0.70;;
21192;SDS011;10754;51.106;7.164;2023-04-23T13:38:49;1.60;;;0.43;;
21192;SDS011;10754;51.106;7.164;2023-04-23T13:41:14;2.67;;;0.80;;
21192;SDS011;10754;51.106;7.164;2023-04-23T13:43:40;4.95;;;0.80;;
21192;SDS011;10754;51.106;7.164;2023-04-23T13:46:05;1.63;;;0.50;;
21192;SDS011;10754;51.106;7.164;2023-04-23T13:48:31;1.83;;;0.60;;
21192;SDS011;10754;51.106;7.164;2023-04-23T13:50:57;1.02;;;0.65;;
21192;SDS011;10754;51.106;7.164;2023-04-23T13:53:24;1.08;;;0.40;;
21192;SDS011;10754;51.106;7.164;2023-04-23T13:55:50;1.23;;;0.60;;
21192;SDS011;10754;51.106;7.164;2023-04-23T13:58:16;2.38;;;0.88;;
21192;SDS011;10754;51.106;7.164;2023-04-23T14:00:42;1.23;;;0.40;;
21192;SDS011;10754;51.106;7.164;2023-04-23T14:03:07;1.55;;;0.45;;
21192;SDS011;10754;51.106;7.164;2023-04-23T14:05:33;1.08;;;0.40;;
21192;SDS011;10754;51.106;7.164;2023-04-23T14:07:59;0.57;;;0.30;;
21192;SDS011;10754;51.106;7.164;2023-04-23T14:10:24;3.13;;;0.88;;
21192;SDS011;10754;51.106;7.164;2023-04-23T14:12:50;1.25;;;0.43;;
21192;SDS011;10754;51.106;7.164;2023-04-23T14:15:17;2.42;;;0.55;;
21192;SDS011;10754;51.106;7.164;2023-04-23T14:17:43;1.83;;;0.63;;
21192;SDS011;10754;51.106;7.164;2023-04-23T14:20:09;1.63;;;0.63;;
21192;SDS011;10754;51.106;7.164;2023-04-23T14:22:36;2.65;;;0.50;;
21192;SDS011;10754;51.106;7.164;2023-04-23T14:25:24;0.52;;;0.30;;
21192;SDS011;10754;51.106;7.164;2023-04-23T14:28:27;1.58;;;0.35;;
21192;SDS011;10754;51.106;7.164;2023-04-23T14:30:58;1.10;;;0.40;;
21192;SDS011;10754;51.106;7.164;2023-04-23T14:33:25;0.32;;;0.30;;
21192;SDS011;10754;51.106;7.164;2023-04-23T14:35:50;1.00;;;0.30;;
21192;SDS011;10754;51.106;7.164;2023-04-23T14:38:16;0.30;;;0.28;;
21192;SDS011;10754;51.106;7.164;2023-04-23T14:40:42;1.45;;;0.30;;
21192;SDS011;10754;51.106;7.164;2023-04-23T14:43:07;1.00;;;0.43;;
21192;SDS011;10754;51.106;7.164;2023-04-23T14:45:33;1.60;;;0.70;;